createdAt,value
2017-11-12T00:00:04.314Z,9.17
2017-11-12T00:00:08.548Z,9.23
2017-11-12T00:00:13.053Z,9.26
2017-11-12T00:00:17.556Z,9.24
2017-11-12T00:00:22.046Z,9.26
2017-11-12T00:00:26.407Z,9.34
2017-11-12T00:00:30.637Z,9.31
2017-11-12T00:00:35.163Z,9.34
2017-11-12T00:00:39.380Z,9.23
2017-11-12T00:00:43.600Z,9.31
2017-11-12T00:00:48.096Z,9.31
2017-11-12T00:00:52.450Z,9.23
2017-11-12T00:00:56.812Z,9.27
2017-11-12T00:01:01.306Z,9.27
2017-11-12T00:01:05.402Z,9.3
2017-11-12T00:01:09.763Z,9.27
2017-11-12T00:01:14.245Z,9.24
2017-11-12T00:01:18.750Z,9.3
2017-11-12T00:01:23.233Z,9.2
2017-11-12T00:01:27.591Z,9.24
2017-11-12T00:01:32.094Z,9.31
2017-11-12T00:01:36.459Z,9.31
2017-11-12T00:01:40.685Z,9.26
2017-11-12T00:01:45.075Z,9.24
2017-11-12T00:01:49.428Z,9.26
2017-11-12T00:01:53.778Z,9.34
2017-11-12T00:01:58.006Z,9.26
2017-11-12T00:02:02.095Z,9.27
2017-11-12T00:02:06.334Z,9.34
2017-11-12T00:02:10.555Z,9.22
2017-11-12T00:02:15.087Z,9.34
2017-11-12T00:02:19.304Z,9.31
2017-11-12T00:02:23.655Z,9.23
2017-11-12T00:02:28.194Z,9.27
2017-11-12T00:02:32.542Z,9.32
2017-11-12T00:02:37.026Z,9.26
2017-11-12T00:02:41.548Z,9.26
2017-11-12T00:02:45.916Z,9.24
2017-11-12T00:02:50.273Z,9.3
2017-11-12T00:02:54.507Z,9.17
2017-11-12T00:02:58.906Z,9.27
2017-11-12T00:03:03.395Z,9.31
2017-11-12T00:03:07.758Z,9.2
2017-11-12T00:03:12.254Z,9.27
2017-11-12T00:03:16.749Z,9.31
2017-11-12T00:03:21.249Z,9.34
2017-11-12T00:03:25.626Z,9.34
2017-11-12T00:03:29.854Z,9.24
2017-11-12T00:03:34.216Z,9.3
2017-11-12T00:03:38.575Z,9.26
2017-11-12T00:03:42.786Z,9.27
2017-11-12T00:03:46.872Z,9.35
2017-11-12T00:03:51.160Z,9.31
2017-11-12T00:03:55.719Z,9.2
2017-11-12T00:04:00.201Z,9.27
2017-11-12T00:04:04.554Z,9.32
2017-11-12T00:04:09.066Z,9.26
2017-11-12T00:04:13.430Z,9.32
2017-11-12T00:04:17.648Z,9.35
2017-11-12T00:04:21.886Z,9.24
2017-11-12T00:04:26.378Z,9.35
2017-11-12T00:04:30.603Z,9.24
2017-11-12T00:04:34.832Z,9.24
2017-11-12T00:04:39.321Z,9.24
2017-11-12T00:04:43.813Z,9.32
2017-11-12T00:04:48.176Z,9.23
2017-11-12T00:04:52.665Z,9.26
2017-11-12T00:04:57.022Z,9.37
2017-11-12T00:05:01.252Z,9.23
2017-11-12T00:05:05.754Z,9.31
2017-11-12T00:05:09.975Z,9.27
2017-11-12T00:05:14.460Z,9.32
2017-11-12T00:05:18.814Z,9.23
2017-11-12T00:05:23.304Z,9.3
2017-11-12T00:05:27.530Z,9.32
2017-11-12T00:05:32.049Z,9.24
2017-11-12T00:05:36.407Z,9.22
2017-11-12T00:05:40.895Z,9.24
2017-11-12T00:05:45.259Z,9.31
2017-11-12T00:05:49.749Z,9.26
2017-11-12T00:05:54.234Z,9.32
2017-11-12T00:05:58.596Z,9.31
2017-11-12T00:06:03.302Z,9.27
2017-11-12T00:06:07.252Z,9.27
2017-11-12T00:06:11.603Z,9.3
2017-11-12T00:06:15.974Z,9.26
2017-11-12T00:06:20.464Z,9.27
2017-11-12T00:06:24.953Z,9.3
2017-11-12T00:06:29.534Z,9.26
2017-11-12T00:06:34.023Z,9.27
2017-11-12T00:06:38.509Z,9.24
2017-11-12T00:06:43.007Z,9.3
2017-11-12T00:06:47.383Z,9.3
2017-11-12T00:06:51.735Z,9.27
2017-11-12T00:06:55.967Z,9.24
2017-11-12T00:07:00.458Z,9.23
2017-11-12T00:07:04.985Z,9.24
2017-11-12T00:07:09.339Z,9.27
2017-11-12T00:07:13.733Z,9.26
2017-11-12T00:07:18.213Z,9.27
2017-11-12T00:07:22.672Z,9.26
2017-11-12T00:07:27.034Z,9.31
2017-11-12T00:07:31.257Z,9.32
2017-11-12T00:07:35.477Z,9.31
2017-11-12T00:07:39.853Z,9.24
2017-11-12T00:07:44.251Z,9.27
2017-11-12T00:07:48.616Z,9.32
2017-11-12T00:07:53.109Z,9.3
2017-11-12T00:07:57.642Z,9.32
2017-11-12T00:08:02.145Z,9.35
2017-11-12T00:08:06.515Z,9.24
2017-11-12T00:08:10.901Z,9.3
2017-11-12T00:08:15.390Z,9.24
2017-11-12T00:08:19.740Z,9.31
2017-11-12T00:08:23.712Z,9.32
2017-11-12T00:08:28.080Z,9.3
2017-11-12T00:08:32.432Z,9.26
2017-11-12T00:08:36.789Z,9.24
2017-11-12T00:08:41.015Z,9.32
2017-11-12T00:08:45.518Z,9.31
2017-11-12T00:08:50.013Z,9.31
2017-11-12T00:08:54.391Z,9.3
2017-11-12T00:08:58.612Z,9.31
2017-11-12T00:09:02.974Z,9.31
2017-11-12T00:09:07.477Z,9.24
2017-11-12T00:09:11.961Z,9.32
2017-11-12T00:09:16.048Z,9.27
2017-11-12T00:09:20.539Z,9.3
2017-11-12T00:09:25.081Z,9.24
2017-11-12T00:09:29.310Z,9.26
2017-11-12T00:09:33.684Z,9.27
2017-11-12T00:09:37.639Z,9.26
2017-11-12T00:09:42.138Z,9.24
2017-11-12T00:09:46.495Z,9.3
2017-11-12T00:09:50.998Z,9.27
2017-11-12T00:09:55.349Z,9.2
2017-11-12T00:09:59.841Z,9.3
2017-11-12T00:10:03.932Z,9.24
2017-11-12T00:10:08.159Z,9.27
2017-11-12T00:10:12.511Z,9.27
2017-11-12T00:10:16.870Z,9.27
2017-11-12T00:10:21.361Z,9.27
2017-11-12T00:10:25.850Z,9.31
2017-11-12T00:10:30.220Z,9.27
2017-11-12T00:10:34.442Z,9.3
2017-11-12T00:10:38.931Z,9.31
2017-11-12T00:10:43.302Z,9.26
2017-11-12T00:10:47.527Z,9.26
2017-11-12T00:10:51.878Z,9.26
2017-11-12T00:10:56.384Z,9.35
2017-11-12T00:11:00.749Z,9.34
2017-11-12T00:11:05.327Z,9.27
2017-11-12T00:11:09.690Z,9.31
2017-11-12T00:11:14.201Z,9.32
2017-11-12T00:11:18.559Z,9.27
2017-11-12T00:11:23.041Z,9.31
2017-11-12T00:11:27.414Z,9.3
2017-11-12T00:11:31.771Z,9.35
2017-11-12T00:11:36.125Z,9.31
2017-11-12T00:11:40.480Z,9.35
2017-11-12T00:11:44.829Z,9.32
2017-11-12T00:11:49.183Z,9.4
2017-11-12T00:11:53.550Z,9.32
2017-11-12T00:11:57.941Z,9.32
2017-11-12T00:12:02.778Z,9.37
2017-11-12T00:12:07.013Z,9.4
2017-11-12T00:12:11.368Z,9.27
2017-11-12T00:12:15.585Z,9.27
2017-11-12T00:12:19.936Z,9.4
2017-11-12T00:12:24.445Z,9.24
2017-11-12T00:12:28.663Z,9.35
2017-11-12T00:12:33.157Z,9.34
2017-11-12T00:12:37.656Z,9.41
2017-11-12T00:12:42.002Z,9.3
2017-11-12T00:12:46.518Z,9.4
2017-11-12T00:12:51.048Z,9.38
2017-11-12T00:12:55.535Z,9.4
2017-11-12T00:12:59.882Z,9.32
2017-11-12T00:13:04.675Z,9.32
2017-11-12T00:13:08.889Z,9.34
2017-11-12T00:13:13.245Z,9.3
2017-11-12T00:13:17.473Z,9.38
2017-11-12T00:13:21.832Z,9.32
2017-11-12T00:13:26.204Z,9.4
2017-11-12T00:13:30.556Z,9.32
2017-11-12T00:13:35.047Z,9.32
2017-11-12T00:13:39.398Z,9.41
2017-11-12T00:13:43.626Z,9.4
2017-11-12T00:13:48.118Z,9.31
2017-11-12T00:13:52.341Z,9.31
2017-11-12T00:13:56.833Z,9.4
2017-11-12T00:14:01.192Z,9.35
2017-11-12T00:14:05.709Z,9.4
2017-11-12T00:14:10.059Z,9.42
2017-11-12T00:14:14.421Z,9.34
2017-11-12T00:14:18.778Z,9.32
2017-11-12T00:14:23.128Z,9.34
2017-11-12T00:14:27.626Z,9.32
2017-11-12T00:14:31.857Z,9.32
2017-11-12T00:14:36.347Z,9.34
2017-11-12T00:14:40.693Z,9.31
2017-11-12T00:14:45.234Z,9.31
2017-11-12T00:14:49.727Z,9.4
2017-11-12T00:14:54.226Z,9.35
2017-11-12T00:14:58.604Z,9.35
2017-11-12T00:15:03.389Z,9.31
2017-11-12T00:15:07.350Z,9.34
2017-11-12T00:15:11.599Z,9.34
2017-11-12T00:15:15.947Z,9.37
2017-11-12T00:15:20.166Z,9.31
2017-11-12T00:15:24.535Z,9.42
2017-11-12T00:15:28.485Z,9.42
2017-11-12T00:15:32.707Z,9.44
2017-11-12T00:15:37.205Z,9.31
2017-11-12T00:15:41.698Z,9.3
2017-11-12T00:15:46.048Z,9.38
2017-11-12T00:15:50.556Z,9.42
2017-11-12T00:15:55.065Z,9.31
2017-11-12T00:15:59.280Z,9.4
2017-11-12T00:16:04.019Z,9.4
2017-11-12T00:16:08.113Z,9.34
2017-11-12T00:16:12.596Z,9.34
2017-11-12T00:16:17.084Z,9.3
2017-11-12T00:16:21.459Z,9.4
2017-11-12T00:16:25.956Z,9.34
2017-11-12T00:16:30.043Z,9.31
2017-11-12T00:16:34.553Z,9.44
2017-11-12T00:16:38.908Z,9.32
2017-11-12T00:16:43.400Z,9.34
2017-11-12T00:16:47.769Z,9.41
2017-11-12T00:16:52.252Z,9.4
2017-11-12T00:16:56.736Z,9.4
2017-11-12T00:17:01.099Z,9.4
2017-11-12T00:17:05.589Z,9.41
2017-11-12T00:17:09.946Z,9.35
2017-11-12T00:17:14.445Z,9.4
2017-11-12T00:17:18.811Z,9.3
2017-11-12T00:17:23.027Z,9.24
2017-11-12T00:17:27.400Z,9.35
2017-11-12T00:17:31.911Z,9.4
2017-11-12T00:17:35.996Z,9.34
2017-11-12T00:17:40.478Z,9.37
2017-11-12T00:17:44.976Z,9.38
2017-11-12T00:17:49.462Z,9.37
2017-11-12T00:17:53.823Z,9.32
2017-11-12T00:17:58.214Z,9.32
2017-11-12T00:18:02.714Z,9.27
2017-11-12T00:18:07.069Z,9.35
2017-11-12T00:18:11.351Z,9.37
2017-11-12T00:18:15.845Z,9.31
2017-11-12T00:18:20.339Z,9.31
2017-11-12T00:18:24.707Z,9.27
2017-11-12T00:18:28.934Z,9.32
2017-11-12T00:18:33.295Z,9.37
2017-11-12T00:18:37.789Z,9.27
2017-11-12T00:18:42.158Z,9.34
2017-11-12T00:18:46.512Z,9.34
2017-11-12T00:18:50.880Z,9.32
2017-11-12T00:18:55.367Z,9.3
2017-11-12T00:18:59.713Z,9.31
2017-11-12T00:19:04.080Z,9.4
2017-11-12T00:19:08.452Z,9.37
2017-11-12T00:19:12.936Z,9.35
2017-11-12T00:19:17.295Z,9.4
2017-11-12T00:19:21.783Z,9.3
2017-11-12T00:19:26.032Z,9.31
2017-11-12T00:19:30.128Z,9.32
2017-11-12T00:19:34.492Z,9.3
2017-11-12T00:19:38.720Z,9.35
2017-11-12T00:19:43.206Z,9.38
2017-11-12T00:19:47.427Z,9.32
2017-11-12T00:19:51.644Z,9.27
2017-11-12T00:19:56.139Z,9.41
2017-11-12T00:20:00.628Z,9.31
2017-11-12T00:20:05.049Z,9.37
2017-11-12T00:20:09.409Z,9.3
2017-11-12T00:20:13.629Z,9.32
2017-11-12T00:20:18.010Z,9.31
2017-11-12T00:20:22.500Z,9.37
2017-11-12T00:20:26.856Z,9.3
2017-11-12T00:20:31.239Z,9.35
2017-11-12T00:20:35.728Z,9.32
2017-11-12T00:20:40.222Z,9.4
2017-11-12T00:20:44.723Z,9.34
2017-11-12T00:20:48.945Z,9.38
2017-11-12T00:20:53.296Z,9.37
2017-11-12T00:20:57.784Z,9.31
2017-11-12T00:21:02.445Z,9.37
2017-11-12T00:21:06.678Z,9.32
2017-11-12T00:21:11.195Z,9.41
2017-11-12T00:21:15.681Z,9.38
2017-11-12T00:21:20.173Z,9.24
2017-11-12T00:21:24.539Z,9.31
2017-11-12T00:21:28.490Z,9.3
2017-11-12T00:21:32.844Z,9.35
2017-11-12T00:21:37.335Z,9.37
2017-11-12T00:21:41.849Z,9.35
2017-11-12T00:21:46.195Z,9.38
2017-11-12T00:21:50.548Z,9.37
2017-11-12T00:21:54.903Z,9.3
2017-11-12T00:21:59.454Z,9.32
2017-11-12T00:22:03.952Z,9.32
2017-11-12T00:22:08.053Z,9.38
2017-11-12T00:22:12.549Z,9.26
2017-11-12T00:22:16.767Z,9.35
2017-11-12T00:22:20.988Z,9.32
2017-11-12T00:22:25.377Z,9.31
2017-11-12T00:22:29.471Z,9.26
2017-11-12T00:22:33.960Z,9.32
2017-11-12T00:22:38.057Z,9.31
2017-11-12T00:22:42.573Z,9.37
2017-11-12T00:22:46.924Z,9.31
2017-11-12T00:22:51.434Z,9.35
2017-11-12T00:22:55.931Z,9.34
2017-11-12T00:23:00.142Z,9.31
2017-11-12T00:23:04.655Z,9.42
2017-11-12T00:23:09.019Z,9.3
2017-11-12T00:23:13.507Z,9.34
2017-11-12T00:23:18.004Z,9.3
2017-11-12T00:23:22.485Z,9.31
2017-11-12T00:23:26.830Z,9.32
2017-11-12T00:23:31.054Z,9.35
2017-11-12T00:23:35.281Z,9.31
2017-11-12T00:23:39.638Z,9.32
2017-11-12T00:23:43.991Z,9.34
2017-11-12T00:23:48.223Z,9.27
2017-11-12T00:23:52.437Z,9.32
2017-11-12T00:23:56.787Z,9.34
2017-11-12T00:24:01.005Z,9.35
2017-11-12T00:24:05.497Z,9.34
2017-11-12T00:24:09.866Z,9.31
2017-11-12T00:24:14.217Z,9.27
2017-11-12T00:24:18.697Z,9.32
2017-11-12T00:24:23.046Z,9.34
2017-11-12T00:24:27.262Z,9.32
2017-11-12T00:24:31.616Z,9.32
2017-11-12T00:24:35.968Z,9.38
2017-11-12T00:24:40.191Z,9.27
2017-11-12T00:24:44.682Z,9.35
2017-11-12T00:24:49.045Z,9.27
2017-11-12T00:24:53.401Z,9.27
2017-11-12T00:24:57.889Z,9.32
2017-11-12T00:25:02.547Z,9.32
2017-11-12T00:25:07.052Z,9.27
2017-11-12T00:25:11.539Z,9.37
2017-11-12T00:25:16.021Z,9.35
2017-11-12T00:25:20.534Z,9.27
2017-11-12T00:25:25.030Z,9.32
2017-11-12T00:25:29.244Z,9.31
2017-11-12T00:25:33.485Z,9.31
2017-11-12T00:25:37.970Z,9.32
2017-11-12T00:25:42.328Z,9.31
2017-11-12T00:25:46.702Z,9.3
2017-11-12T00:25:51.059Z,9.24
2017-11-12T00:25:55.283Z,9.3
2017-11-12T00:25:59.768Z,9.32
2017-11-12T00:26:03.883Z,9.3
2017-11-12T00:26:08.236Z,9.32
2017-11-12T00:26:12.583Z,9.26
2017-11-12T00:26:17.118Z,9.37
2017-11-12T00:26:21.467Z,9.3
2017-11-12T00:26:25.689Z,9.32
2017-11-12T00:26:29.927Z,9.34
2017-11-12T00:26:34.409Z,9.35
2017-11-12T00:26:38.889Z,9.24
2017-11-12T00:26:43.259Z,9.3
2017-11-12T00:26:47.750Z,9.35
2017-11-12T00:26:52.241Z,9.35
2017-11-12T00:26:56.607Z,9.38
2017-11-12T00:27:01.090Z,9.31
2017-11-12T00:27:05.591Z,9.32
2017-11-12T00:27:09.953Z,9.37
2017-11-12T00:27:14.048Z,9.32
2017-11-12T00:27:18.532Z,9.35
2017-11-12T00:27:23.015Z,9.37
2017-11-12T00:27:27.386Z,9.32
2017-11-12T00:27:31.756Z,9.4
2017-11-12T00:27:36.003Z,9.31
2017-11-12T00:27:40.500Z,9.37
2017-11-12T00:27:45.000Z,9.3
2017-11-12T00:27:49.360Z,9.4
2017-11-12T00:27:53.584Z,9.35
2017-11-12T00:27:58.079Z,9.34
2017-11-12T00:28:02.752Z,9.32
2017-11-12T00:28:06.843Z,9.3
2017-11-12T00:28:11.063Z,9.32
2017-11-12T00:28:15.418Z,9.31
2017-11-12T00:28:19.916Z,9.32
2017-11-12T00:28:24.405Z,9.27
2017-11-12T00:28:28.757Z,9.27
2017-11-12T00:28:33.112Z,9.35
2017-11-12T00:28:37.474Z,9.31
2017-11-12T00:28:41.702Z,9.27
2017-11-12T00:28:46.199Z,9.26
2017-11-12T00:28:50.479Z,9.32
2017-11-12T00:28:54.838Z,9.37
2017-11-12T00:28:59.199Z,9.27
2017-11-12T00:29:03.692Z,9.27
2017-11-12T00:29:07.793Z,9.31
2017-11-12T00:29:12.280Z,9.3
2017-11-12T00:29:16.503Z,9.34
2017-11-12T00:29:20.904Z,9.31
2017-11-12T00:29:25.142Z,9.35
2017-11-12T00:29:29.510Z,9.3
2017-11-12T00:29:34.003Z,9.32
2017-11-12T00:29:38.486Z,9.37
2017-11-12T00:29:42.977Z,9.34
2017-11-12T00:29:47.198Z,9.37
2017-11-12T00:29:51.549Z,9.37
2017-11-12T00:29:55.918Z,9.3
2017-11-12T00:30:00.287Z,9.3
2017-11-12T00:30:04.643Z,9.31
2017-11-12T00:30:09.151Z,9.31
2017-11-12T00:30:13.520Z,9.3
2017-11-12T00:30:17.878Z,9.4
2017-11-12T00:30:21.971Z,9.3
2017-11-12T00:30:26.469Z,9.37
2017-11-12T00:30:30.690Z,9.38
2017-11-12T00:30:34.917Z,9.38
2017-11-12T00:30:39.133Z,9.32
2017-11-12T00:30:43.350Z,9.37
2017-11-12T00:30:47.846Z,9.3
2017-11-12T00:30:52.221Z,9.26
2017-11-12T00:30:56.722Z,9.32
2017-11-12T00:31:01.206Z,9.32
2017-11-12T00:31:05.712Z,9.41
2017-11-12T00:31:10.101Z,9.27
2017-11-12T00:31:14.607Z,9.31
2017-11-12T00:31:19.093Z,9.31
2017-11-12T00:31:23.585Z,9.38
2017-11-12T00:31:27.670Z,9.31
2017-11-12T00:31:32.021Z,9.38
2017-11-12T00:31:36.115Z,9.34
2017-11-12T00:31:40.625Z,9.34
2017-11-12T00:31:44.976Z,9.32
2017-11-12T00:31:49.329Z,9.31
2017-11-12T00:31:53.825Z,9.41
2017-11-12T00:31:57.950Z,9.32
2017-11-12T00:32:02.451Z,9.38
2017-11-12T00:32:06.958Z,9.27
2017-11-12T00:32:11.469Z,9.4
2017-11-12T00:32:15.824Z,9.31
2017-11-12T00:32:20.046Z,9.38
2017-11-12T00:32:24.420Z,9.38
2017-11-12T00:32:28.641Z,9.32
2017-11-12T00:32:32.868Z,9.32
2017-11-12T00:32:37.096Z,9.31
2017-11-12T00:32:41.447Z,9.3
2017-11-12T00:32:45.927Z,9.26
2017-11-12T00:32:50.416Z,9.4
2017-11-12T00:32:54.915Z,9.37
2017-11-12T00:32:59.132Z,9.41
2017-11-12T00:33:03.497Z,9.38
2017-11-12T00:33:08.001Z,9.32
2017-11-12T00:33:12.487Z,9.31
2017-11-12T00:33:16.974Z,9.4
2017-11-12T00:33:21.473Z,9.35
2017-11-12T00:33:25.959Z,9.41
2017-11-12T00:33:30.454Z,9.3
2017-11-12T00:33:34.977Z,9.34
2017-11-12T00:33:39.192Z,9.34
2017-11-12T00:33:43.687Z,9.4
2017-11-12T00:33:48.181Z,9.34
2017-11-12T00:33:52.528Z,9.4
2017-11-12T00:33:57.013Z,9.34
2017-11-12T00:34:01.282Z,9.3
2017-11-12T00:34:05.771Z,9.32
2017-11-12T00:34:10.125Z,9.4
2017-11-12T00:34:14.230Z,9.27
2017-11-12T00:34:18.320Z,9.38
2017-11-12T00:34:22.538Z,9.4
2017-11-12T00:34:27.032Z,9.38
2017-11-12T00:34:31.125Z,9.38
2017-11-12T00:34:35.620Z,9.27
2017-11-12T00:34:39.860Z,9.37
2017-11-12T00:34:44.371Z,9.37
2017-11-12T00:34:48.888Z,9.3
2017-11-12T00:34:53.383Z,9.35
2017-11-12T00:34:57.882Z,9.3
2017-11-12T00:35:02.005Z,9.27
2017-11-12T00:35:06.355Z,9.34
2017-11-12T00:35:10.739Z,9.32
2017-11-12T00:35:15.103Z,9.34
2017-11-12T00:35:19.614Z,9.32
2017-11-12T00:35:23.842Z,9.31
2017-11-12T00:35:28.068Z,9.32
2017-11-12T00:35:32.421Z,9.4
2017-11-12T00:35:36.787Z,9.27
2017-11-12T00:35:41.018Z,9.32
2017-11-12T00:35:45.281Z,9.38
2017-11-12T00:35:49.783Z,9.41
2017-11-12T00:35:54.304Z,9.32
2017-11-12T00:35:58.795Z,9.3
2017-11-12T00:36:03.295Z,9.38
2017-11-12T00:36:07.519Z,9.31
2017-11-12T00:36:11.877Z,9.26
2017-11-12T00:36:16.226Z,9.31
2017-11-12T00:36:20.447Z,9.37
2017-11-12T00:36:24.660Z,9.32
2017-11-12T00:36:29.023Z,9.34
2017-11-12T00:36:33.389Z,9.32
2017-11-12T00:36:37.738Z,9.3
2017-11-12T00:36:42.223Z,9.4
2017-11-12T00:36:46.592Z,9.34
2017-11-12T00:36:50.828Z,9.32
2017-11-12T00:36:55.315Z,9.35
2017-11-12T00:36:59.810Z,9.4
2017-11-12T00:37:04.600Z,9.34
2017-11-12T00:37:09.090Z,9.34
2017-11-12T00:37:13.585Z,9.35
2017-11-12T00:37:18.077Z,9.34
2017-11-12T00:37:22.558Z,9.35
2017-11-12T00:37:26.919Z,9.32
2017-11-12T00:37:31.178Z,9.31
2017-11-12T00:37:35.669Z,9.41
2017-11-12T00:37:40.178Z,9.35
2017-11-12T00:37:44.679Z,9.32
2017-11-12T00:37:48.899Z,9.27
2017-11-12T00:37:53.249Z,9.32
2017-11-12T00:37:57.758Z,9.31
2017-11-12T00:38:02.154Z,9.3
2017-11-12T00:38:06.643Z,9.27
2017-11-12T00:38:11.020Z,9.38
2017-11-12T00:38:15.502Z,9.34
2017-11-12T00:38:19.719Z,9.32
2017-11-12T00:38:24.235Z,9.27
2017-11-12T00:38:28.459Z,9.31
2017-11-12T00:38:32.682Z,9.32
2017-11-12T00:38:37.177Z,9.4
2017-11-12T00:38:41.399Z,9.31
2017-11-12T00:38:45.615Z,9.38
2017-11-12T00:38:50.108Z,9.34
2017-11-12T00:38:54.538Z,9.27
2017-11-12T00:38:58.891Z,9.3
2017-11-12T00:39:03.388Z,9.31
2017-11-12T00:39:07.891Z,9.32
2017-11-12T00:39:12.456Z,9.27
2017-11-12T00:39:16.947Z,9.3
2017-11-12T00:39:21.167Z,9.27
2017-11-12T00:39:25.661Z,9.31
2017-11-12T00:39:30.050Z,9.3
2017-11-12T00:39:34.144Z,9.26
2017-11-12T00:39:38.505Z,9.31
2017-11-12T00:39:42.731Z,9.27
2017-11-12T00:39:46.957Z,9.31
2017-11-12T00:39:51.440Z,9.35
2017-11-12T00:39:55.683Z,9.32
2017-11-12T00:40:00.032Z,9.26
2017-11-12T00:40:04.533Z,9.31
2017-11-12T00:40:08.897Z,9.3
2017-11-12T00:40:13.385Z,9.32
2017-11-12T00:40:17.737Z,9.3
2017-11-12T00:40:22.124Z,9.32
2017-11-12T00:40:26.665Z,9.34
2017-11-12T00:40:30.883Z,9.27
2017-11-12T00:40:35.249Z,9.3
2017-11-12T00:40:39.463Z,9.26
2017-11-12T00:40:43.692Z,9.35
2017-11-12T00:40:47.942Z,9.31
2017-11-12T00:40:52.314Z,9.3
2017-11-12T00:40:56.663Z,9.26
2017-11-12T00:41:01.160Z,9.3
2017-11-12T00:41:05.483Z,9.32
2017-11-12T00:41:09.704Z,9.26
2017-11-12T00:41:14.080Z,9.26
2017-11-12T00:41:18.569Z,9.35
2017-11-12T00:41:22.928Z,9.26
2017-11-12T00:41:27.017Z,9.31
2017-11-12T00:41:31.390Z,9.35
2017-11-12T00:41:35.638Z,9.3
2017-11-12T00:41:39.987Z,9.27
2017-11-12T00:41:44.348Z,9.23
2017-11-12T00:41:48.706Z,9.24
2017-11-12T00:41:53.188Z,9.26
2017-11-12T00:41:57.551Z,9.32
2017-11-12T00:42:02.057Z,9.31
2017-11-12T00:42:06.542Z,9.32
2017-11-12T00:42:10.924Z,9.26
2017-11-12T00:42:15.145Z,9.35
2017-11-12T00:42:19.640Z,9.31
2017-11-12T00:42:24.133Z,9.24
2017-11-12T00:42:28.506Z,9.32
2017-11-12T00:42:33.001Z,9.32
2017-11-12T00:42:37.378Z,9.27
2017-11-12T00:42:41.876Z,9.27
2017-11-12T00:42:46.383Z,9.27
2017-11-12T00:42:50.742Z,9.27
2017-11-12T00:42:54.983Z,9.38
2017-11-12T00:42:59.340Z,9.37
2017-11-12T00:43:04.037Z,9.38
2017-11-12T00:43:08.534Z,9.32
2017-11-12T00:43:12.900Z,9.24
2017-11-12T00:43:17.256Z,9.38
2017-11-12T00:43:21.482Z,9.32
2017-11-12T00:43:25.840Z,9.35
2017-11-12T00:43:30.201Z,9.27
2017-11-12T00:43:34.430Z,9.34
2017-11-12T00:43:38.931Z,9.32
2017-11-12T00:43:43.154Z,9.38
2017-11-12T00:43:47.515Z,9.32
2017-11-12T00:43:51.770Z,9.38
2017-11-12T00:43:56.259Z,9.27
2017-11-12T00:44:00.761Z,9.38
2017-11-12T00:44:05.320Z,9.31
2017-11-12T00:44:09.571Z,9.31
2017-11-12T00:44:13.929Z,9.4
2017-11-12T00:44:18.423Z,9.34
2017-11-12T00:44:22.792Z,9.37
2017-11-12T00:44:27.280Z,9.35
2017-11-12T00:44:31.362Z,9.41
2017-11-12T00:44:35.717Z,9.38
2017-11-12T00:44:40.083Z,9.32
2017-11-12T00:44:44.432Z,9.42
2017-11-12T00:44:48.519Z,9.3
2017-11-12T00:44:53.027Z,9.32
2017-11-12T00:44:57.523Z,9.31
2017-11-12T00:45:01.814Z,9.32
2017-11-12T00:45:06.187Z,9.37
2017-11-12T00:45:10.676Z,9.27
2017-11-12T00:45:15.032Z,9.31
2017-11-12T00:45:19.550Z,9.27
2017-11-12T00:45:24.060Z,9.32
2017-11-12T00:45:28.149Z,9.35
2017-11-12T00:45:32.519Z,9.32
2017-11-12T00:45:36.764Z,9.32
2017-11-12T00:45:40.719Z,9.37
2017-11-12T00:45:44.954Z,9.34
2017-11-12T00:45:49.330Z,9.4
2017-11-12T00:45:53.825Z,9.34
2017-11-12T00:45:57.939Z,9.31
2017-11-12T00:46:02.404Z,9.31
2017-11-12T00:46:06.628Z,9.34
2017-11-12T00:46:10.980Z,9.31
2017-11-12T00:46:15.783Z,9.32
2017-11-12T00:46:20.280Z,9.31
2017-11-12T00:46:24.632Z,9.4
2017-11-12T00:46:28.865Z,9.35
2017-11-12T00:46:33.215Z,9.41
2017-11-12T00:46:37.696Z,9.34
2017-11-12T00:46:42.191Z,9.31
2017-11-12T00:46:46.553Z,9.37
2017-11-12T00:46:50.777Z,9.32
2017-11-12T00:46:55.271Z,9.34
2017-11-12T00:46:59.759Z,9.4
2017-11-12T00:47:04.404Z,9.38
2017-11-12T00:47:08.895Z,9.34
2017-11-12T00:47:13.275Z,9.37
2017-11-12T00:47:17.626Z,9.38
2017-11-12T00:47:22.123Z,9.3
2017-11-12T00:47:26.359Z,9.32
2017-11-12T00:47:30.577Z,9.4
2017-11-12T00:47:34.935Z,9.41
2017-11-12T00:47:39.448Z,9.41
2017-11-12T00:47:43.940Z,9.38
2017-11-12T00:47:48.427Z,9.4
2017-11-12T00:47:52.656Z,9.34
2017-11-12T00:47:57.150Z,9.42
2017-11-12T00:48:01.746Z,9.4
2017-11-12T00:48:05.836Z,9.44
2017-11-12T00:48:10.190Z,9.44
2017-11-12T00:48:14.428Z,9.44
2017-11-12T00:48:18.932Z,9.35
2017-11-12T00:48:23.428Z,9.48
2017-11-12T00:48:27.783Z,9.38
2017-11-12T00:48:32.165Z,9.45
2017-11-12T00:48:36.664Z,9.38
2017-11-12T00:48:41.164Z,9.37
2017-11-12T00:48:45.526Z,9.5
2017-11-12T00:48:49.748Z,9.35
2017-11-12T00:48:54.096Z,9.5
2017-11-12T00:48:58.589Z,9.4
2017-11-12T00:49:03.243Z,9.42
2017-11-12T00:49:07.599Z,9.5
2017-11-12T00:49:12.096Z,9.48
2017-11-12T00:49:16.611Z,9.52
2017-11-12T00:49:21.099Z,9.48
2017-11-12T00:49:25.457Z,9.44
2017-11-12T00:49:29.549Z,9.48
2017-11-12T00:49:34.091Z,9.45
2017-11-12T00:49:38.334Z,9.5
2017-11-12T00:49:42.563Z,9.41
2017-11-12T00:49:47.054Z,9.48
2017-11-12T00:49:51.550Z,9.44
2017-11-12T00:49:56.051Z,9.45
2017-11-12T00:50:00.540Z,9.58
2017-11-12T00:50:04.922Z,9.52
2017-11-12T00:50:09.296Z,9.5
2017-11-12T00:50:13.668Z,9.45
2017-11-12T00:50:18.153Z,9.45
2017-11-12T00:50:22.525Z,9.48
2017-11-12T00:50:27.052Z,9.49
2017-11-12T00:50:31.004Z,9.53
2017-11-12T00:50:35.496Z,9.5
2017-11-12T00:50:39.853Z,9.44
2017-11-12T00:50:44.239Z,9.5
2017-11-12T00:50:48.724Z,9.45
2017-11-12T00:50:53.097Z,9.48
2017-11-12T00:50:57.194Z,9.48
2017-11-12T00:51:01.414Z,9.56
2017-11-12T00:51:05.780Z,9.44
2017-11-12T00:51:10.268Z,9.55
2017-11-12T00:51:14.753Z,9.52
2017-11-12T00:51:19.245Z,9.48
2017-11-12T00:51:23.781Z,9.48
2017-11-12T00:51:28.274Z,9.53
2017-11-12T00:51:32.775Z,9.52
2017-11-12T00:51:37.268Z,9.55
2017-11-12T00:51:41.501Z,9.45
2017-11-12T00:51:45.987Z,9.49
2017-11-12T00:51:50.489Z,9.45
2017-11-12T00:51:54.574Z,9.44
2017-11-12T00:51:58.938Z,9.45
2017-11-12T00:52:03.450Z,9.44
2017-11-12T00:52:07.830Z,9.44
2017-11-12T00:52:12.187Z,9.44
2017-11-12T00:52:16.686Z,9.49
2017-11-12T00:52:20.902Z,9.48
2017-11-12T00:52:25.399Z,9.48
2017-11-12T00:52:29.626Z,9.49
2017-11-12T00:52:33.987Z,9.45
2017-11-12T00:52:38.361Z,9.49
2017-11-12T00:52:42.747Z,9.5
2017-11-12T00:52:46.854Z,9.5
2017-11-12T00:52:51.072Z,9.49
2017-11-12T00:52:55.429Z,9.49
2017-11-12T00:52:59.784Z,9.42
2017-11-12T00:53:04.265Z,9.49
2017-11-12T00:53:08.765Z,9.49
2017-11-12T00:53:13.288Z,9.45
2017-11-12T00:53:17.515Z,9.48
2017-11-12T00:53:21.865Z,9.48
2017-11-12T00:53:26.397Z,9.52
2017-11-12T00:53:30.622Z,9.52
2017-11-12T00:53:34.995Z,9.44
2017-11-12T00:53:39.239Z,9.5
2017-11-12T00:53:43.595Z,9.49
2017-11-12T00:53:47.952Z,9.48
2017-11-12T00:53:52.314Z,9.55
2017-11-12T00:53:56.667Z,9.52
2017-11-12T00:54:01.031Z,9.48
2017-11-12T00:54:05.527Z,9.55
2017-11-12T00:54:09.911Z,9.56
2017-11-12T00:54:14.261Z,9.5
2017-11-12T00:54:18.748Z,9.52
2017-11-12T00:54:23.257Z,9.5
2017-11-12T00:54:27.492Z,9.52
2017-11-12T00:54:31.875Z,9.5
2017-11-12T00:54:36.254Z,9.45
2017-11-12T00:54:40.743Z,9.48
2017-11-12T00:54:45.248Z,9.49
2017-11-12T00:54:49.624Z,9.53
2017-11-12T00:54:53.843Z,9.49
2017-11-12T00:54:58.072Z,9.56
2017-11-12T00:55:02.304Z,9.48
2017-11-12T00:55:06.658Z,9.48
2017-11-12T00:55:11.148Z,9.48
2017-11-12T00:55:15.572Z,9.52
2017-11-12T00:55:19.984Z,9.48
2017-11-12T00:55:24.338Z,9.48
2017-11-12T00:55:28.717Z,9.48
2017-11-12T00:55:33.240Z,9.48
2017-11-12T00:55:37.593Z,9.48
2017-11-12T00:55:42.093Z,9.45
2017-11-12T00:55:46.590Z,9.5
2017-11-12T00:55:50.970Z,9.48
2017-11-12T00:55:55.326Z,9.49
2017-11-12T00:55:59.423Z,9.48
2017-11-12T00:56:03.928Z,9.48
2017-11-12T00:56:08.026Z,9.52
2017-11-12T00:56:12.398Z,9.52
2017-11-12T00:56:16.884Z,9.48
2017-11-12T00:56:21.244Z,9.48
2017-11-12T00:56:25.742Z,9.45
2017-11-12T00:56:30.091Z,9.45
2017-11-12T00:56:34.577Z,9.48
2017-11-12T00:56:38.939Z,9.48
2017-11-12T00:56:43.334Z,9.45
2017-11-12T00:56:47.689Z,9.49
2017-11-12T00:56:52.179Z,9.45
2017-11-12T00:56:56.406Z,9.49
2017-11-12T00:57:00.757Z,9.5
2017-11-12T00:57:04.903Z,9.5
2017-11-12T00:57:09.148Z,9.49
2017-11-12T00:57:13.496Z,9.45
2017-11-12T00:57:17.993Z,9.48
2017-11-12T00:57:22.503Z,9.44
2017-11-12T00:57:27.002Z,9.52
2017-11-12T00:57:31.232Z,9.5
2017-11-12T00:57:35.735Z,9.44
2017-11-12T00:57:40.132Z,9.49
2017-11-12T00:57:44.623Z,9.48
2017-11-12T00:57:49.122Z,9.53
2017-11-12T00:57:53.621Z,9.42
2017-11-12T00:57:57.840Z,9.42
2017-11-12T00:58:02.692Z,9.44
2017-11-12T00:58:07.195Z,9.34
2017-11-12T00:58:11.544Z,9.34
2017-11-12T00:58:16.035Z,9.42
2017-11-12T00:58:20.583Z,9.38
2017-11-12T00:58:25.078Z,9.41
2017-11-12T00:58:29.304Z,9.35
2017-11-12T00:58:33.817Z,9.27
2017-11-12T00:58:38.172Z,9.26